sensor_id;sensor_type;location;lat;lon;timestamp;pressure;altitude;pressure_sealevel;temperature;humidity
72558;BME280;60583;50.094;8.748;2023-02-01T00:01:40;101014.88;;;5.29;96.34
72558;BME280;60583;50.094;8.748;2023-02-01T00:04:06;101023.53;;;5.31;96.75
72558;BME280;60583;50.094;8.748;2023-02-01T00:06:31;100991.16;;;5.19;96.76
72558;BME280;60583;50.094;8.748;2023-02-01T00:08:57;101022.91;;;5.37;96.46
72558;BME280;60583;50.094;8.748;2023-02-01T00:11:23;100987.38;;;5.22;96.09
72558;BME280;60583;50.094;8.748;2023-02-01T00:13:49;100993.22;;;5.25;96.08
72558;BME280;60583;50.094;8.748;2023-02-01T00:16:20;101009.56;;;5.38;96.01
72558;BME280;60583;50.094;8.748;2023-02-01T00:18:47;101002.38;;;5.48;95.46
72558;BME280;60583;50.094;8.748;2023-02-01T00:21:14;100998.06;;;5.30;95.93
72558;BME280;60583;50.094;8.748;2023-02-01T00:23:40;101018.69;;;5.44;95.61
72558;BME280;60583;50.094;8.748;2023-02-01T00:26:07;101015.97;;;5.36;95.86
72558;BME280;60583;50.094;8.748;2023-02-01T00:28:33;101014.47;;;5.51;94.86
72558;BME280;60583;50.094;8.748;2023-02-01T00:31:00;101012.50;;;5.53;95.38
72558;BME280;60583;50.094;8.748;2023-02-01T00:33:27;100992.56;;;5.41;95.18
72558;BME280;60583;50.094;8.748;2023-02-01T00:36:03;101007.22;;;5.53;94.78
72558;BME280;60583;50.094;8.748;2023-02-01T00:38:30;100998.28;;;5.54;94.59
72558;BME280;60583;50.094;8.748;2023-02-01T00:41:02;100971.63;;;5.30;94.54
72558;BME280;60583;50.094;8.748;2023-02-01T00:43:27;100941.94;;;5.18;94.35
72558;BME280;60583;50.094;8.748;2023-02-01T00:45:53;101004.56;;;5.53;94.26
72558;BME280;60583;50.094;8.748;2023-02-01T00:48:18;101004.28;;;5.56;94.20
72558;BME280;60583;50.094;8.748;2023-02-01T00:50:44;101007.22;;;5.53;94.13
72558;BME280;60583;50.094;8.748;2023-02-01T00:53:10;101008.56;;;5.57;94.21
72558;BME280;60583;50.094;8.748;2023-02-01T00:55:36;100986.06;;;5.53;93.81
72558;BME280;60583;50.094;8.748;2023-02-01T00:58:02;100962.09;;;5.37;94.10
72558;BME280;60583;50.094;8.748;2023-02-01T01:00:28;100987.72;;;5.54;94.18
72558;BME280;60583;50.094;8.748;2023-02-01T01:02:54;100972.97;;;5.51;94.02
72558;BME280;60583;50.094;8.748;2023-02-01T01:05:20;100965.03;;;5.51;93.65
72558;BME280;60583;50.094;8.748;2023-02-01T01:07:45;101010.63;;;5.63;93.41
72558;BME280;60583;50.094;8.748;2023-02-01T01:10:11;101005.78;;;5.58;93.34
72558;BME280;60583;50.094;8.748;2023-02-01T01:12:36;100973.59;;;5.45;93.41
72558;BME280;60583;50.094;8.748;2023-02-01T01:15:02;100996.72;;;5.61;93.80
72558;BME280;60583;50.094;8.748;2023-02-01T01:17:27;100999.38;;;5.61;93.15
72558;BME280;60583;50.094;8.748;2023-02-01T01:19:53;100993.63;;;5.65;93.04
72558;BME280;60583;50.094;8.748;2023-02-01T01:22:18;100981.53;;;5.63;93.07
72558;BME280;60583;50.094;8.748;2023-02-01T01:24:43;100994.59;;;5.64;93.10
72558;BME280;60583;50.094;8.748;2023-02-01T01:27:09;100985.81;;;5.64;92.82
72558;BME280;60583;50.094;8.748;2023-02-01T01:29:34;100978.59;;;5.66;92.99
72558;BME280;60583;50.094;8.748;2023-02-01T01:32:00;100928.56;;;5.37;92.53
72558;BME280;60583;50.094;8.748;2023-02-01T01:34:25;100975.09;;;5.65;92.92
72558;BME280;60583;50.094;8.748;2023-02-01T01:36:51;100967.63;;;5.61;92.60
72558;BME280;60583;50.094;8.748;2023-02-01T01:39:16;100984.25;;;5.71;92.41
72558;BME280;60583;50.094;8.748;2023-02-01T01:41:42;100974.09;;;5.66;92.75
72558;BME280;60583;50.094;8.748;2023-02-01T01:47:37;100914.50;;;5.37;92.78
72558;BME280;60583;50.094;8.748;2023-02-01T01:50:07;100957.84;;;5.61;93.18
72558;BME280;60583;50.094;8.748;2023-02-01T01:52:33;100942.75;;;5.54;93.27
72558;BME280;60583;50.094;8.748;2023-02-01T01:54:59;100974.94;;;5.67;93.33
72558;BME280;60583;50.094;8.748;2023-02-01T01:57:34;100950.25;;;5.58;93.01
72558;BME280;60583;50.094;8.748;2023-02-01T02:00:13;100965.72;;;5.71;93.67
72558;BME280;60583;50.094;8.748;2023-02-01T02:02:40;100920.16;;;5.42;93.37
72558;BME280;60583;50.094;8.748;2023-02-01T02:05:08;100901.75;;;5.32;93.24
72558;BME280;60583;50.094;8.748;2023-02-01T02:07:36;100959.69;;;5.61;93.42
72558;BME280;60583;50.094;8.748;2023-02-01T02:10:08;100942.81;;;5.62;94.16
72558;BME280;60583;50.094;8.748;2023-02-01T02:12:38;100946.13;;;5.64;94.52
72558;BME280;60583;50.094;8.748;2023-02-01T02:15:07;100944.88;;;5.68;94.06
72558;BME280;60583;50.094;8.748;2023-02-01T02:17:44;100931.88;;;5.57;94.61
72558;BME280;60583;50.094;8.748;2023-02-01T02:31:34;100879.38;;;5.27;95.54
72558;BME280;60583;50.094;8.748;2023-02-01T02:34:15;100949.63;;;5.64;95.68
72558;BME280;60583;50.094;8.748;2023-02-01T02:39:23;100949.09;;;5.61;96.31
72558;BME280;60583;50.094;8.748;2023-02-01T02:42:05;100961.34;;;5.62;96.30
72558;BME280;60583;50.094;8.748;2023-02-01T02:48:28;100931.78;;;5.49;96.74
72558;BME280;60583;50.094;8.748;2023-02-01T02:51:27;100965.03;;;5.69;96.20
72558;BME280;60583;50.094;8.748;2023-02-01T02:54:19;100962.38;;;5.69;96.08
72558;BME280;60583;50.094;8.748;2023-02-01T02:57:07;100933.16;;;5.53;96.19
72558;BME280;60583;50.094;8.748;2023-02-01T02:59:52;100945.47;;;5.62;95.66
72558;BME280;60583;50.094;8.748;2023-02-01T03:02:37;100943.06;;;5.68;95.94
72558;BME280;60583;50.094;8.748;2023-02-01T03:05:22;100947.88;;;5.73;95.73
72558;BME280;60583;50.094;8.748;2023-02-01T03:07:53;100927.19;;;5.68;95.70
72558;BME280;60583;50.094;8.748;2023-02-01T03:13:03;100930.97;;;5.66;95.98
72558;BME280;60583;50.094;8.748;2023-02-01T03:15:38;100942.88;;;5.70;96.08
72558;BME280;60583;50.094;8.748;2023-02-01T03:18:15;100919.69;;;5.64;96.25
72558;BME280;60583;50.094;8.748;2023-02-01T03:20:44;100932.97;;;5.72;96.33
72558;BME280;60583;50.094;8.748;2023-02-01T03:23:13;100919.19;;;5.60;95.81
72558;BME280;60583;50.094;8.748;2023-02-01T03:25:41;100892.50;;;5.54;95.94
72558;BME280;60583;50.094;8.748;2023-02-01T03:28:08;100908.34;;;5.54;96.05
72558;BME280;60583;50.094;8.748;2023-02-01T03:30:42;100894.47;;;5.52;96.27
72558;BME280;60583;50.094;8.748;2023-02-01T03:33:13;100897.47;;;5.57;95.54
72558;BME280;60583;50.094;8.748;2023-02-01T03:36:13;100931.00;;;5.74;95.22
72558;BME280;60583;50.094;8.748;2023-02-01T03:39:00;100916.91;;;5.65;95.26
72558;BME280;60583;50.094;8.748;2023-02-01T03:41:51;100923.03;;;5.66;95.39
72558;BME280;60583;50.094;8.748;2023-02-01T03:47:23;100915.22;;;5.64;94.92
72558;BME280;60583;50.094;8.748;2023-02-01T03:50:15;100923.41;;;5.71;94.75
72558;BME280;60583;50.094;8.748;2023-02-01T03:52:48;100918.09;;;5.71;94.81
72558;BME280;60583;50.094;8.748;2023-02-01T03:55:18;100924.06;;;5.73;94.68
72558;BME280;60583;50.094;8.748;2023-02-01T03:58:03;100904.94;;;5.61;94.57
72558;BME280;60583;50.094;8.748;2023-02-01T04:00:31;100900.03;;;5.66;94.73
72558;BME280;60583;50.094;8.748;2023-02-01T04:02:57;100892.25;;;5.65;94.72
72558;BME280;60583;50.094;8.748;2023-02-01T04:05:22;100869.16;;;5.49;95.18
72558;BME280;60583;50.094;8.748;2023-02-01T04:07:48;100860.13;;;5.34;94.96
72558;BME280;60583;50.094;8.748;2023-02-01T04:10:14;100903.00;;;5.63;95.52
72558;BME280;60583;50.094;8.748;2023-02-01T04:12:40;100894.84;;;5.57;96.06
72558;BME280;60583;50.094;8.748;2023-02-01T04:15:06;100877.25;;;5.48;95.91
72558;BME280;60583;50.094;8.748;2023-02-01T04:17:31;100899.16;;;5.58;96.21
72558;BME280;60583;50.094;8.748;2023-02-01T04:19:57;100903.31;;;5.60;96.10
72558;BME280;60583;50.094;8.748;2023-02-01T04:22:22;100898.53;;;5.64;95.62
72558;BME280;60583;50.094;8.748;2023-02-01T04:24:48;100889.84;;;5.54;96.13
72558;BME280;60583;50.094;8.748;2023-02-01T04:27:14;100903.81;;;5.64;96.39
72558;BME280;60583;50.094;8.748;2023-02-01T04:29:39;100881.59;;;5.57;95.75
72558;BME280;60583;50.094;8.748;2023-02-01T04:32:05;100905.66;;;5.63;96.49
72558;BME280;60583;50.094;8.748;2023-02-01T04:34:31;100895.88;;;5.64;96.45
72558;BME280;60583;50.094;8.748;2023-02-01T04:36:56;100874.91;;;5.45;96.49
72558;BME280;60583;50.094;8.748;2023-02-01T04:39:22;100931.00;;;5.74;96.19
72558;BME280;60583;50.094;8.748;2023-02-01T04:41:47;100916.25;;;5.71;95.84
72558;BME280;60583;50.094;8.748;2023-02-01T04:44:15;100915.13;;;5.74;96.09
72558;BME280;60583;50.094;8.748;2023-02-01T04:46:41;100920.41;;;5.74;96.18
72558;BME280;60583;50.094;8.748;2023-02-01T04:49:08;100920.41;;;5.74;96.18
72558;BME280;60583;50.094;8.748;2023-02-01T04:51:34;100909.34;;;5.70;96.13
72558;BME280;60583;50.094;8.748;2023-02-01T04:54:00;100896.56;;;5.66;96.11
72558;BME280;60583;50.094;8.748;2023-02-01T04:56:25;100913.47;;;5.73;96.14
72558;BME280;60583;50.094;8.748;2023-02-01T04:58:51;100907.00;;;5.67;96.34
72558;BME280;60583;50.094;8.748;2023-02-01T05:01:16;100894.59;;;5.68;96.44
72558;BME280;60583;50.094;8.748;2023-02-01T05:03:41;100889.41;;;5.58;96.73
72558;BME280;60583;50.094;8.748;2023-02-01T05:06:07;100902.16;;;5.63;97.13
72558;BME280;60583;50.094;8.748;2023-02-01T05:08:33;100893.69;;;5.59;97.01
72558;BME280;60583;50.094;8.748;2023-02-01T05:10:58;100863.13;;;5.39;97.01
72558;BME280;60583;50.094;8.748;2023-02-01T05:13:24;100893.03;;;5.57;97.26
72558;BME280;60583;50.094;8.748;2023-02-01T05:16:09;100888.66;;;5.48;96.65
72558;BME280;60583;50.094;8.748;2023-02-01T05:18:34;100899.88;;;5.68;95.75
72558;BME280;60583;50.094;8.748;2023-02-01T05:20:59;100900.41;;;5.71;94.95
72558;BME280;60583;50.094;8.748;2023-02-01T05:23:26;100890.91;;;5.61;94.86
72558;BME280;60583;50.094;8.748;2023-02-01T05:25:51;100891.94;;;5.68;94.40
72558;BME280;60583;50.094;8.748;2023-02-01T05:28:17;100897.63;;;5.73;93.90
72558;BME280;60583;50.094;8.748;2023-02-01T05:30:42;100892.31;;;5.73;94.24
72558;BME280;60583;50.094;8.748;2023-02-01T05:33:08;100835.84;;;5.39;93.88
72558;BME280;60583;50.094;8.748;2023-02-01T05:35:33;100896.25;;;5.69;93.91
72558;BME280;60583;50.094;8.748;2023-02-01T05:37:59;100896.59;;;5.74;93.68
72558;BME280;60583;50.094;8.748;2023-02-01T05:40:24;100853.09;;;5.43;93.79
72558;BME280;60583;50.094;8.748;2023-02-01T05:42:50;100909.53;;;5.77;93.16
72558;BME280;60583;50.094;8.748;2023-02-01T05:45:15;100849.78;;;5.41;93.76
72558;BME280;60583;50.094;8.748;2023-02-01T05:47:43;100893.16;;;5.73;93.80
72558;BME280;60583;50.094;8.748;2023-02-01T05:50:09;100898.94;;;5.77;93.93
72558;BME280;60583;50.094;8.748;2023-02-01T05:52:35;100897.81;;;5.79;93.43
72558;BME280;60583;50.094;8.748;2023-02-01T05:55:00;100895.09;;;5.71;93.33
72558;BME280;60583;50.094;8.748;2023-02-01T05:57:26;100884.69;;;5.70;94.08
72558;BME280;60583;50.094;8.748;2023-02-01T05:59:51;100879.22;;;5.71;93.68
72558;BME280;60583;50.094;8.748;2023-02-01T06:02:16;100889.50;;;5.74;93.24
72558;BME280;60583;50.094;8.748;2023-02-01T06:04:42;100854.25;;;5.66;93.35
72558;BME280;60583;50.094;8.748;2023-02-01T06:07:08;100873.13;;;5.71;93.35
72558;BME280;60583;50.094;8.748;2023-02-01T06:09:36;100876.22;;;5.66;92.79
72558;BME280;60583;50.094;8.748;2023-02-01T06:12:02;100879.03;;;5.65;92.67
72558;BME280;60583;50.094;8.748;2023-02-01T06:14:28;100866.75;;;5.56;92.00
72558;BME280;60583;50.094;8.748;2023-02-01T06:16:54;100876.69;;;5.62;92.36
72558;BME280;60583;50.094;8.748;2023-02-01T06:19:20;100853.59;;;5.46;92.80
72558;BME280;60583;50.094;8.748;2023-02-01T06:21:46;100869.38;;;5.56;92.47
72558;BME280;60583;50.094;8.748;2023-02-01T06:24:12;100861.09;;;5.51;92.27
72558;BME280;60583;50.094;8.748;2023-02-01T06:26:38;100869.03;;;5.51;92.48
72558;BME280;60583;50.094;8.748;2023-02-01T06:29:14;100884.94;;;5.59;92.54
72558;BME280;60583;50.094;8.748;2023-02-01T06:31:40;100877.16;;;5.57;92.37
72558;BME280;60583;50.094;8.748;2023-02-01T06:34:05;100889.41;;;5.58;91.87
72558;BME280;60583;50.094;8.748;2023-02-01T06:36:31;100882.97;;;5.61;92.08
72558;BME280;60583;50.094;8.748;2023-02-01T06:38:56;100864.03;;;5.48;92.04
72558;BME280;60583;50.094;8.748;2023-02-01T06:41:22;100879.81;;;5.57;92.00
72558;BME280;60583;50.094;8.748;2023-02-01T06:43:48;100883.88;;;5.52;91.45
72558;BME280;60583;50.094;8.748;2023-02-01T06:46:14;100886.84;;;5.49;91.29
72558;BME280;60583;50.094;8.748;2023-02-01T06:48:40;100875.22;;;5.42;91.39
72558;BME280;60583;50.094;8.748;2023-02-01T06:51:06;100888.13;;;5.45;91.43
72558;BME280;60583;50.094;8.748;2023-02-01T06:53:32;100863.53;;;5.27;91.47
72558;BME280;60583;50.094;8.748;2023-02-01T06:56:00;100871.81;;;5.32;91.29
72558;BME280;60583;50.094;8.748;2023-02-01T06:58:33;100902.97;;;5.38;90.96
72558;BME280;60583;50.094;8.748;2023-02-01T07:01:04;100911.56;;;5.40;90.73
72558;BME280;60583;50.094;8.748;2023-02-01T07:03:30;100898.94;;;5.34;89.95
72558;BME280;60583;50.094;8.748;2023-02-01T07:05:56;100864.75;;;5.14;90.35
72558;BME280;60583;50.094;8.748;2023-02-01T07:08:26;100895.50;;;5.33;90.46
72558;BME280;60583;50.094;8.748;2023-02-01T07:10:52;100892.69;;;5.35;90.27
72558;BME280;60583;50.094;8.748;2023-02-01T07:13:17;100874.56;;;5.22;90.04
72558;BME280;60583;50.094;8.748;2023-02-01T07:15:43;100892.31;;;5.30;89.73
72558;BME280;60583;50.094;8.748;2023-02-01T07:18:08;100881.72;;;5.30;89.55
72558;BME280;60583;50.094;8.748;2023-02-01T07:20:34;100868.22;;;5.15;90.00
72558;BME280;60583;50.094;8.748;2023-02-01T07:22:59;100849.25;;;5.20;89.08
72558;BME280;60583;50.094;8.748;2023-02-01T07:25:25;100837.66;;;5.12;89.12
72558;BME280;60583;50.094;8.748;2023-02-01T07:27:50;100872.13;;;5.29;89.32
72558;BME280;60583;50.094;8.748;2023-02-01T07:30:16;100845.28;;;5.15;89.15
72558;BME280;60583;50.094;8.748;2023-02-01T07:32:42;100887.56;;;5.33;89.07
72558;BME280;60583;50.094;8.748;2023-02-01T07:35:08;100831.16;;;5.07;88.62
72558;BME280;60583;50.094;8.748;2023-02-01T07:37:33;100897.66;;;5.38;88.31
72558;BME280;60583;50.094;8.748;2023-02-01T07:39:59;100904.00;;;5.45;87.76
72558;BME280;60583;50.094;8.748;2023-02-01T07:42:24;100907.94;;;5.41;87.87
72558;BME280;60583;50.094;8.748;2023-02-01T07:44:50;100917.91;;;5.47;86.61
72558;BME280;60583;50.094;8.748;2023-02-01T07:47:15;100921.22;;;5.49;86.03
72558;BME280;60583;50.094;8.748;2023-02-01T07:49:40;100915.56;;;5.44;84.84
72558;BME280;60583;50.094;8.748;2023-02-01T07:52:06;100936.09;;;5.50;84.17
72558;BME280;60583;50.094;8.748;2023-02-01T07:54:31;100931.72;;;5.58;82.81
72558;BME280;60583;50.094;8.748;2023-02-01T07:56:57;100930.91;;;5.58;82.53
72558;BME280;60583;50.094;8.748;2023-02-01T07:59:22;100925.97;;;5.63;82.05
72558;BME280;60583;50.094;8.748;2023-02-01T08:01:48;100926.66;;;5.65;81.37
72558;BME280;60583;50.094;8.748;2023-02-01T08:04:13;100917.41;;;5.69;82.11
72558;BME280;60583;50.094;8.748;2023-02-01T08:06:39;100914.03;;;5.59;82.67
72558;BME280;60583;50.094;8.748;2023-02-01T08:09:06;100915.63;;;5.52;83.64
72558;BME280;60583;50.094;8.748;2023-02-01T08:11:33;100932.16;;;5.54;84.60
72558;BME280;60583;50.094;8.748;2023-02-01T08:13:58;100946.47;;;5.61;84.33
72558;BME280;60583;50.094;8.748;2023-02-01T08:16:24;100946.47;;;5.61;84.68
72558;BME280;60583;50.094;8.748;2023-02-01T08:18:51;100941.31;;;5.59;84.22
72558;BME280;60583;50.094;8.748;2023-02-01T08:21:22;100937.22;;;5.65;83.71
72558;BME280;60583;50.094;8.748;2023-02-01T08:23:49;100951.38;;;5.73;83.33
72558;BME280;60583;50.094;8.748;2023-02-01T08:26:23;100954.00;;;5.73;83.51
72558;BME280;60583;50.094;8.748;2023-02-01T08:28:51;100943.25;;;5.75;83.35
72558;BME280;60583;50.094;8.748;2023-02-01T08:31:20;100947.41;;;5.77;82.97
72558;BME280;60583;50.094;8.748;2023-02-01T08:33:54;100961.59;;;5.86;82.98
72558;BME280;60583;50.094;8.748;2023-02-01T08:36:21;100950.66;;;5.89;82.85
72558;BME280;60583;50.094;8.748;2023-02-01T08:38:47;100935.63;;;5.72;83.31
72558;BME280;60583;50.094;8.748;2023-02-01T08:41:15;100964.25;;;5.94;82.65
72558;BME280;60583;50.094;8.748;2023-02-01T08:43:42;100939.31;;;5.79;82.10
72558;BME280;60583;50.094;8.748;2023-02-01T08:46:08;100961.97;;;5.99;81.68
72558;BME280;60583;50.094;8.748;2023-02-01T08:48:35;100965.34;;;6.01;81.56
72558;BME280;60583;50.094;8.748;2023-02-01T08:51:02;100953.16;;;5.91;81.22
72558;BME280;60583;50.094;8.748;2023-02-01T08:53:28;100975.81;;;6.11;80.91
72558;BME280;60583;50.094;8.748;2023-02-01T08:55:54;100939.16;;;5.98;80.89
72558;BME280;60583;50.094;8.748;2023-02-01T08:58:20;100977.63;;;6.10;80.36
72558;BME280;60583;50.094;8.748;2023-02-01T09:00:47;100975.50;;;6.14;80.04
72558;BME280;60583;50.094;8.748;2023-02-01T09:03:13;100917.84;;;5.82;79.69
72558;BME280;60583;50.094;8.748;2023-02-01T09:05:39;100961.25;;;6.15;78.96
72558;BME280;60583;50.094;8.748;2023-02-01T09:08:05;100941.09;;;6.14;78.65
72558;BME280;60583;50.094;8.748;2023-02-01T09:10:31;100969.47;;;6.29;78.21
72558;BME280;60583;50.094;8.748;2023-02-01T09:12:56;100957.16;;;6.20;77.55
72558;BME280;60583;50.094;8.748;2023-02-01T09:15:22;100968.31;;;6.32;77.68
72558;BME280;60583;50.094;8.748;2023-02-01T09:17:47;100967.66;;;6.30;77.54
72558;BME280;60583;50.094;8.748;2023-02-01T09:20:14;100967.50;;;6.31;76.38
72558;BME280;60583;50.094;8.748;2023-02-01T09:22:40;100949.69;;;6.16;76.35
72558;BME280;60583;50.094;8.748;2023-02-01T09:25:06;100981.41;;;6.33;76.47
72558;BME280;60583;50.094;8.748;2023-02-01T09:27:32;100977.88;;;6.25;76.67
72558;BME280;60583;50.094;8.748;2023-02-01T09:29:58;100981.72;;;6.30;76.02
72558;BME280;60583;50.094;8.748;2023-02-01T09:32:24;100992.16;;;6.32;75.29
72558;BME280;60583;50.094;8.748;2023-02-01T09:34:50;101007.22;;;6.31;75.08
72558;BME280;60583;50.094;8.748;2023-02-01T09:37:16;100986.00;;;6.23;74.44
72558;BME280;60583;50.094;8.748;2023-02-01T09:39:42;100986.06;;;6.31;74.42
72558;BME280;60583;50.094;8.748;2023-02-01T09:42:25;100990.66;;;6.29;74.41
72558;BME280;60583;50.094;8.748;2023-02-01T09:45:10;101030.00;;;6.50;73.96
72558;BME280;60583;50.094;8.748;2023-02-01T09:47:45;101022.72;;;6.44;73.79
72558;BME280;60583;50.094;8.748;2023-02-01T09:50:45;101024.56;;;6.52;72.83
72558;BME280;60583;50.094;8.748;2023-02-01T09:53:21;101041.63;;;6.57;72.76
72558;BME280;60583;50.094;8.748;2023-02-01T09:55:50;101027.91;;;6.54;73.02
72558;BME280;60583;50.094;8.748;2023-02-01T09:58:29;101014.44;;;6.47;72.41
72558;BME280;60583;50.094;8.748;2023-02-01T10:00:59;101028.38;;;6.57;71.99
72558;BME280;60583;50.094;8.748;2023-02-01T10:03:29;101026.28;;;6.61;71.96
72558;BME280;60583;50.094;8.748;2023-02-01T10:14:25;101013.38;;;6.66;71.90
72558;BME280;60583;50.094;8.748;2023-02-01T10:20:07;101027.66;;;6.73;70.60
72558;BME280;60583;50.094;8.748;2023-02-01T10:22:46;101019.72;;;6.73;70.90
72558;BME280;60583;50.094;8.748;2023-02-01T10:25:21;101025.53;;;6.76;70.16
72558;BME280;60583;50.094;8.748;2023-02-01T10:27:49;100997.59;;;6.56;70.45
72558;BME280;60583;50.094;8.748;2023-02-01T10:30:19;101002.47;;;6.69;70.79
72558;BME280;60583;50.094;8.748;2023-02-01T10:32:48;100989.38;;;6.67;70.90
72558;BME280;60583;50.094;8.748;2023-02-01T10:35:21;100992.19;;;6.66;70.65
72558;BME280;60583;50.094;8.748;2023-02-01T10:37:49;100986.88;;;6.66;71.36
72558;BME280;60583;50.094;8.748;2023-02-01T10:40:25;100965.28;;;6.53;71.15
72558;BME280;60583;50.094;8.748;2023-02-01T10:42:54;100961.34;;;6.57;71.02
72558;BME280;60583;50.094;8.748;2023-02-01T10:45:25;100979.28;;;6.71;70.75
72558;BME280;60583;50.094;8.748;2023-02-01T10:47:53;100980.13;;;6.71;71.42
72558;BME280;60583;50.094;8.748;2023-02-01T10:50:44;100979.13;;;6.72;71.12
72558;BME280;60583;50.094;8.748;2023-02-01T10:53:19;100970.16;;;6.65;70.30
72558;BME280;60583;50.094;8.748;2023-02-01T10:55:50;100963.00;;;6.58;70.57
72558;BME280;60583;50.094;8.748;2023-02-01T10:58:25;100969.53;;;6.71;69.96
72558;BME280;60583;50.094;8.748;2023-02-01T11:01:00;100951.81;;;6.72;69.53
72558;BME280;60583;50.094;8.748;2023-02-01T11:06:33;100961.72;;;6.70;70.01
72558;BME280;60583;50.094;8.748;2023-02-01T11:11:33;100963.72;;;6.68;69.54
72558;BME280;60583;50.094;8.748;2023-02-01T11:14:26;100964.38;;;6.70;69.62
72558;BME280;60583;50.094;8.748;2023-02-01T11:16:58;100959.06;;;6.70;70.02
72558;BME280;60583;50.094;8.748;2023-02-01T11:19:25;100971.69;;;6.76;69.63
72558;BME280;60583;50.094;8.748;2023-02-01T11:21:54;100935.19;;;6.54;70.01
72558;BME280;60583;50.094;8.748;2023-02-01T11:24:29;100919.06;;;6.47;70.27
72558;BME280;60583;50.094;8.748;2023-02-01T11:26:57;100959.75;;;6.72;70.22
72558;BME280;60583;50.094;8.748;2023-02-01T11:29:24;100943.34;;;6.68;70.21
72558;BME280;60583;50.094;8.748;2023-02-01T11:31:58;100943.53;;;6.75;70.09
72558;BME280;60583;50.094;8.748;2023-02-01T11:34:28;100943.03;;;6.71;70.60
72558;BME280;60583;50.094;8.748;2023-02-01T11:36:58;100952.47;;;6.74;71.15
72558;BME280;60583;50.094;8.748;2023-02-01T11:39:29;100966.25;;;6.85;70.62
72558;BME280;60583;50.094;8.748;2023-02-01T11:42:00;100911.69;;;6.59;70.49
72558;BME280;60583;50.094;8.748;2023-02-01T11:44:37;100942.56;;;6.84;70.70
72558;BME280;60583;50.094;8.748;2023-02-01T11:49:48;100943.91;;;6.88;70.71
72558;BME280;60583;50.094;8.748;2023-02-01T11:55:16;100932.47;;;6.87;70.72
72558;BME280;60583;50.094;8.748;2023-02-01T11:57:57;100880.03;;;6.49;70.61
72558;BME280;60583;50.094;8.748;2023-02-01T12:03:19;100946.41;;;6.89;71.07
72558;BME280;60583;50.094;8.748;2023-02-01T12:08:54;100943.91;;;6.88;71.61
72558;BME280;60583;50.094;8.748;2023-02-01T12:12:22;100936.13;;;6.86;71.57
72558;BME280;60583;50.094;8.748;2023-02-01T12:14:32;100902.41;;;6.63;72.52
72558;BME280;60583;50.094;8.748;2023-02-01T12:20:02;100935.13;;;6.79;71.65
72558;BME280;60583;50.094;8.748;2023-02-01T12:22:50;100934.28;;;6.79;71.66
72558;BME280;60583;50.094;8.748;2023-02-01T12:25:56;100900.78;;;6.70;71.91
72558;BME280;60583;50.094;8.748;2023-02-01T12:28:40;100927.47;;;6.76;71.75
72558;BME280;60583;50.094;8.748;2023-02-01T12:31:17;100937.59;;;6.81;71.65
72558;BME280;60583;50.094;8.748;2023-02-01T12:39:24;100939.56;;;6.79;72.02
72558;BME280;60583;50.094;8.748;2023-02-01T12:44:43;100922.53;;;6.81;71.60
72558;BME280;60583;50.094;8.748;2023-02-01T12:47:23;100903.78;;;6.67;72.01
72558;BME280;60583;50.094;8.748;2023-02-01T12:49:54;100907.91;;;6.77;72.06
72558;BME280;60583;50.094;8.748;2023-02-01T12:52:46;100897.63;;;6.66;72.32
72558;BME280;60583;50.094;8.748;2023-02-01T12:55:35;100886.69;;;6.61;72.76
72558;BME280;60583;50.094;8.748;2023-02-01T13:01:05;100893.16;;;6.75;72.98
72558;BME280;60583;50.094;8.748;2023-02-01T13:03:40;100831.50;;;6.49;71.90
72558;BME280;60583;50.094;8.748;2023-02-01T13:06:15;100896.69;;;6.83;72.65
72558;BME280;60583;50.094;8.748;2023-02-01T13:08:51;100889.06;;;6.80;72.05
72558;BME280;60583;50.094;8.748;2023-02-01T13:11:29;100880.97;;;6.82;72.47
72558;BME280;60583;50.094;8.748;2023-02-01T13:14:02;100833.66;;;6.53;72.43
72558;BME280;60583;50.094;8.748;2023-02-01T13:17:09;100885.09;;;6.84;71.99
72558;BME280;60583;50.094;8.748;2023-02-01T13:19:43;100888.56;;;6.85;72.07
72558;BME280;60583;50.094;8.748;2023-02-01T13:22:20;100889.41;;;6.85;71.12
72558;BME280;60583;50.094;8.748;2023-02-01T13:24:51;100888.59;;;6.93;71.23
72558;BME280;60583;50.094;8.748;2023-02-01T13:27:18;100878.50;;;6.96;70.38
72558;BME280;60583;50.094;8.748;2023-02-01T13:35:51;100880.81;;;7.07;69.43
72558;BME280;60583;50.094;8.748;2023-02-01T13:38:32;100876.66;;;7.05;69.65
72558;BME280;60583;50.094;8.748;2023-02-01T13:41:11;100873.38;;;7.11;69.54
72558;BME280;60583;50.094;8.748;2023-02-01T13:43:43;100868.56;;;7.06;69.32
72558;BME280;60583;50.094;8.748;2023-02-01T13:46:11;100834.91;;;6.91;69.71
72558;BME280;60583;50.094;8.748;2023-02-01T13:48:47;100854.16;;;7.09;69.58
72558;BME280;60583;50.094;8.748;2023-02-01T13:51:14;100865.41;;;7.11;69.46
72558;BME280;60583;50.094;8.748;2023-02-01T13:53:46;100866.28;;;7.20;69.12
72558;BME280;60583;50.094;8.748;2023-02-01T13:56:18;100825.97;;;6.92;69.58
72558;BME280;60583;50.094;8.748;2023-02-01T13:58:48;100856.78;;;7.25;68.47
72558;BME280;60583;50.094;8.748;2023-02-01T14:03:49;100862.94;;;7.26;68.29
72558;BME280;60583;50.094;8.748;2023-02-01T14:09:13;100851.81;;;7.30;67.72
72558;BME280;60583;50.094;8.748;2023-02-01T14:11:52;100847.69;;;7.36;67.54
72558;BME280;60583;50.094;8.748;2023-02-01T14:19:35;100811.38;;;7.20;67.38
72558;BME280;60583;50.094;8.748;2023-02-01T14:24:54;100836.25;;;7.35;67.09
72558;BME280;60583;50.094;8.748;2023-02-01T14:27:22;100805.09;;;7.21;67.08
72558;BME280;60583;50.094;8.748;2023-02-01T14:29:57;100833.13;;;7.40;67.34
72558;BME280;60583;50.094;8.748;2023-02-01T14:32:35;100827.13;;;7.46;67.37
72558;BME280;60583;50.094;8.748;2023-02-01T14:35:06;100835.72;;;7.48;66.94
72558;BME280;60583;50.094;8.748;2023-02-01T14:37:35;100838.56;;;7.54;67.06
72558;BME280;60583;50.094;8.748;2023-02-01T14:40:23;100829.94;;;7.52;67.05
72558;BME280;60583;50.094;8.748;2023-02-01T14:42:51;100832.25;;;7.55;66.10
72558;BME280;60583;50.094;8.748;2023-02-01T14:47:52;100827.94;;;7.62;66.21